Time;durP1;ratioP1;P1;durP2;ratioP2;P2;SDS_P1;SDS_P2;PMS_P1;PMS_P2;Temp;Humidity;BMP_temperature;BMP_pressure;BME280_temperature;BME280_humidity;BME280_pressure;Samples;Min_cycle;Max_cycle;Signal;HPM_P1;HPM_P2
2022/09/01 00:01:44;;;;;;;6.32;3.90;;;19.10;99.90;;;;;;4952782;29;20196;-72
2022/09/01 00:04:14;;;;;;;4.57;3.67;;;19.10;1.00;;;;;;4951327;28;20215;-73
2022/09/01 00:06:41;;;;;;;5.63;4.10;;;19.00;56.00;;;;;;4952609;28;20226;-73
2022/09/01 00:09:12;;;;;;;6.97;4.10;;;19.00;1.00;;;;;;4950903;28;20253;-72
2022/09/01 00:11:39;;;;;;;7.60;4.00;;;19.00;1.00;;;;;;4950949;28;20184;-73
2022/09/01 00:14:06;;;;;;;5.97;4.10;;;18.90;1.00;;;;;;4951935;28;20274;-73
2022/09/01 00:16:32;;;;;;;4.70;4.17;;;18.90;1.00;;;;;;4952067;28;20231;-71
2022/09/01 00:18:57;;;;;;;8.20;4.60;;;18.90;5.30;;;;;;4950696;28;20176;-72
2022/09/01 00:21:27;;;;;;;6.63;4.27;;;18.90;1.00;;;;;;4952693;28;20172;-71
2022/09/01 00:23:53;;;;;;;8.13;3.78;;;18.80;99.90;;;;;;4952240;28;20176;-72
2022/09/01 00:26:19;;;;;;;4.85;3.75;;;18.80;1.00;;;;;;4952516;28;20177;-71
2022/09/01 00:28:45;;;;;;;5.60;3.80;;;18.80;99.90;;;;;;4952485;28;20267;-71
2022/09/01 00:31:13;;;;;;;7.55;4.07;;;18.70;99.90;;;;;;4952517;28;20172;-71
2022/09/01 00:33:39;;;;;;;8.95;3.85;;;18.70;1.00;;;;;;4952422;28;20538;-71
2022/09/01 00:36:05;;;;;;;4.30;3.90;;;18.60;1.00;;;;;;4952389;28;20216;-73
2022/09/01 00:38:32;;;;;;;4.18;3.58;;;18.50;99.90;;;;;;4951913;28;20188;-72
2022/09/01 00:40:59;;;;;;;5.03;3.40;;;18.40;1.00;;;;;;4951965;28;20188;-72
2022/09/01 00:43:49;;;;;;;4.30;3.90;;;18.40;1.00;;;;;;4952357;29;20169;-72
2022/09/01 00:46:21;;;;;;;5.77;3.73;;;18.30;1.00;;;;;;4950721;28;20505;-71
2022/09/01 00:48:52;;;;;;;5.43;4.00;;;18.20;1.00;;;;;;4951008;28;20180;-71
2022/09/01 00:51:18;;;;;;;5.73;3.53;;;18.20;1.00;;;;;;4950985;28;20184;-71
2022/09/01 00:53:44;;;;;;;6.00;3.57;;;18.20;1.00;;;;;;4951878;28;20177;-71
2022/09/01 00:56:11;;;;;;;6.80;4.30;;;18.20;1.00;;;;;;4950676;28;20216;-72
2022/09/01 00:58:37;;;;;;;4.33;3.47;;;18.20;1.00;;;;;;4952155;28;20176;-72
2022/09/01 01:01:05;;;;;;;5.87;4.00;;;18.10;1.00;;;;;;4952154;28;20183;-71
2022/09/01 01:03:31;;;;;;;4.43;3.90;;;18.10;29.90;;;;;;4951963;28;20184;-71
2022/09/01 01:06:00;;;;;;;4.33;3.73;;;18.00;99.90;;;;;;4950715;28;20184;-72
2022/09/01 01:08:32;;;;;;;4.13;3.67;;;18.00;99.90;;;;;;4951671;28;20210;-71
2022/09/01 01:11:03;;;;;;;8.90;3.87;;;18.00;99.90;;;;;;4951844;29;20173;-72
2022/09/01 01:13:30;;;;;;;4.47;4.00;;;17.90;99.90;;;;;;4951687;29;20274;-72
2022/09/01 01:15:57;;;;;;;6.80;4.03;;;17.90;99.90;;;;;;4951902;28;20679;-73
2022/09/01 01:18:23;;;;;;;7.90;4.00;;;17.90;99.90;;;;;;4951793;28;20558;-72
2022/09/01 01:24:01;;;;;;;6.43;3.83;;;17.80;99.90;;;;;;4951926;29;20697;-71
2022/09/01 01:26:27;;;;;;;4.77;4.20;;;17.80;99.90;;;;;;4951786;29;20177;-72
2022/09/01 01:28:54;;;;;;;3.83;3.40;;;17.70;99.90;;;;;;4952095;28;20193;-72
2022/09/01 01:31:21;;;;;;;4.40;3.67;;;17.70;99.90;;;;;;4955220;28;20275;-73
2022/09/01 01:33:50;;;;;;;4.00;3.50;;;17.70;99.90;;;;;;4953816;28;20267;-72
2022/09/01 01:36:18;;;;;;;5.03;3.50;;;17.60;99.90;;;;;;4954757;28;20212;-72
2022/09/01 01:38:47;;;;;;;11.17;3.73;;;17.60;99.90;;;;;;4955007;28;20196;-72
2022/09/01 01:41:16;;;;;;;4.53;3.40;;;17.60;99.90;;;;;;4953563;28;20180;-72
2022/09/01 01:43:42;;;;;;;5.27;3.40;;;17.50;99.90;;;;;;4954935;28;20177;-72
2022/09/01 01:46:10;;;;;;;7.27;3.30;;;17.50;99.90;;;;;;4954803;29;20185;-73
2022/09/01 01:48:38;;;;;;;7.40;3.93;;;17.50;99.90;;;;;;4954623;28;20176;-73
2022/09/01 01:51:04;;;;;;;7.27;3.60;;;17.50;99.90;;;;;;4954477;28;20176;-72
2022/09/01 01:53:31;;;;;;;5.43;3.20;;;17.40;99.90;;;;;;4954669;28;20169;-72
2022/09/01 01:55:58;;;;;;;8.17;3.30;;;17.40;99.90;;;;;;4954492;28;20619;-73
2022/09/01 01:58:24;;;;;;;3.83;3.50;;;17.30;99.90;;;;;;4954638;28;20168;-72
2022/09/01 02:00:53;;;;;;;7.27;3.50;;;17.30;99.90;;;;;;4954923;28;20542;-72
2022/09/01 02:03:21;;;;;;;3.37;3.13;;;17.30;99.90;;;;;;4954466;28;20195;-72
2022/09/01 02:05:49;;;;;;;5.07;3.40;;;17.30;99.90;;;;;;4954195;28;20176;-72
2022/09/01 02:08:21;;;;;;;8.23;3.57;;;17.30;99.90;;;;;;4954341;28;20169;-72
2022/09/01 02:10:49;;;;;;;4.40;3.23;;;17.30;99.90;;;;;;4954456;28;20218;-72
2022/09/01 02:13:19;;;;;;;4.20;3.43;;;17.30;99.90;;;;;;4954266;28;20169;-72
2022/09/01 02:15:52;;;;;;;4.97;3.20;;;17.30;99.90;;;;;;4954304;28;20664;-72
2022/09/01 02:18:41;;;;;;;6.87;3.17;;;17.30;99.90;;;;;;4953310;28;20199;-73
2022/09/01 02:21:09;;;;;;;3.90;3.07;;;17.40;22.50;;;;;;4954016;28;20161;-72
2022/09/01 02:23:37;;;;;;;3.67;2.77;;;17.40;1.00;;;;;;4954127;28;20515;-73
2022/09/01 02:26:05;;;;;;;8.10;3.10;;;17.30;1.00;;;;;;4954208;28;20580;-72
2022/09/01 02:28:35;;;;;;;8.37;3.17;;;17.30;1.00;;;;;;4954180;28;20581;-72
2022/09/01 02:31:02;;;;;;;7.40;2.83;;;17.30;1.00;;;;;;4954169;28;20243;-72
2022/09/01 02:33:29;;;;;;;5.13;3.20;;;17.30;1.00;;;;;;4954111;28;20288;-72
2022/09/01 02:35:58;;;;;;;4.90;3.00;;;17.30;1.00;;;;;;4953672;28;20279;-73
2022/09/01 02:38:28;;;;;;;4.37;2.80;;;17.40;1.00;;;;;;4954037;28;20188;-71
2022/09/01 02:40:57;;;;;;;5.50;2.97;;;17.30;99.90;;;;;;4953348;28;20165;-72
2022/09/01 02:43:26;;;;;;;5.17;2.80;;;17.30;1.00;;;;;;4954061;28;20195;-72
2022/09/01 02:45:53;;;;;;;5.20;3.03;;;17.30;99.90;;;;;;4952651;28;20281;-72
2022/09/01 02:48:23;;;;;;;4.03;2.80;;;17.30;99.90;;;;;;4953422;28;20177;-72
2022/09/01 02:50:49;;;;;;;7.33;3.20;;;17.30;1.00;;;;;;4953597;28;20173;-72
2022/09/01 02:53:15;;;;;;;2.83;2.63;;;17.30;99.90;;;;;;4953830;28;20246;-72
2022/09/01 02:55:43;;;;;;;7.17;3.00;;;17.30;23.10;;;;;;4953544;28;20208;-72
2022/09/01 02:58:15;;;;;;;5.93;3.23;;;17.20;38.90;;;;;;4953608;28;20251;-71
2022/09/01 03:00:42;;;;;;;4.70;2.87;;;17.20;28.40;;;;;;4953644;28;20204;-72
2022/09/01 03:03:08;;;;;;;3.57;3.20;;;17.20;1.00;;;;;;4952145;28;20576;-72
2022/09/01 03:05:37;;;;;;;3.87;3.30;;;17.20;1.00;;;;;;4953505;28;20204;-72
2022/09/01 03:08:09;;;;;;;5.23;3.37;;;17.10;1.00;;;;;;4953606;28;20200;-72
2022/09/01 03:10:40;;;;;;;3.00;2.80;;;17.10;1.00;;;;;;4953612;28;20220;-71
2022/09/01 03:13:11;;;;;;;3.03;2.80;;;17.00;99.90;;;;;;4951822;28;20256;-72
2022/09/01 03:15:38;;;;;;;6.63;3.30;;;17.00;36.90;;;;;;4953118;29;20679;-72
2022/09/01 03:18:06;;;;;;;5.93;3.23;;;17.00;25.10;;;;;;4953163;28;20181;-72
2022/09/01 03:20:34;;;;;;;7.87;3.30;;;17.00;99.90;;;;;;4951655;28;20644;-73
2022/09/01 03:23:03;;;;;;;5.33;3.37;;;17.00;99.90;;;;;;4952719;29;20165;-72
2022/09/01 03:25:28;;;;;;;5.70;3.83;;;16.90;99.90;;;;;;4952856;28;20628;-72
2022/09/01 03:27:58;;;;;;;5.77;3.50;;;16.90;99.90;;;;;;4953446;28;20256;-72
2022/09/01 03:30:25;;;;;;;6.53;3.37;;;16.90;1.00;;;;;;4953059;28;20164;-72
2022/09/01 03:32:51;;;;;;;4.93;3.57;;;16.90;1.00;;;;;;4952962;28;20176;-72
2022/09/01 03:35:17;;;;;;;5.23;3.73;;;16.90;1.00;;;;;;4952807;28;20168;-73
2022/09/01 03:37:43;;;;;;;3.63;3.33;;;16.80;1.00;;;;;;4953053;28;20216;-72
2022/09/01 03:40:10;;;;;;;8.63;3.60;;;16.80;1.00;;;;;;4952866;28;20208;-72
2022/09/01 03:42:36;;;;;;;4.13;3.60;;;16.80;1.00;;;;;;4952802;28;20254;-72
2022/09/01 03:45:08;;;;;;;5.90;3.20;;;16.80;1.00;;;;;;4952509;28;20585;-72
2022/09/01 03:47:38;;;;;;;6.90;3.30;;;16.80;1.00;;;;;;4952422;28;20256;-72
2022/09/01 03:50:12;;;;;;;5.33;3.20;;;16.70;1.00;;;;;;4952494;29;20168;-72
2022/09/01 03:52:39;;;;;;;4.87;3.67;;;16.70;35.40;;;;;;4951786;28;20180;-72
2022/09/01 03:55:05;;;;;;;7.03;3.17;;;16.60;99.90;;;;;;4952318;28;20222;-72
2022/09/01 03:57:33;;;;;;;7.70;3.93;;;16.60;99.90;;;;;;4952340;28;20181;-72
2022/09/01 03:59:59;;;;;;;5.17;3.87;;;16.60;99.90;;;;;;4952332;28;20199;-72
2022/09/01 04:02:28;;;;;;;6.97;4.23;;;16.50;99.90;;;;;;4951940;28;20739;-72
2022/09/01 04:04:57;;;;;;;6.83;3.90;;;16.60;99.90;;;;;;4952475;28;20222;-72
2022/09/01 04:07:24;;;;;;;9.13;3.77;;;16.50;99.90;;;;;;4952344;28;20169;-71
2022/09/01 04:09:51;;;;;;;4.10;3.70;;;16.50;99.90;;;;;;4951592;29;20191;-72
2022/09/01 04:12:17;;;;;;;11.23;3.93;;;16.50;99.90;;;;;;4952308;28;20168;-72
2022/09/01 04:14:42;;;;;;;7.13;3.93;;;16.50;99.90;;;;;;4951882;28;20236;-72
2022/09/01 04:19:52;;;;;;;9.87;4.07;;;16.50;99.90;;;;;;4952133;28;20239;-72
2022/09/01 04:22:19;;;;;;;5.30;4.00;;;16.40;99.90;;;;;;4952216;28;20640;-72
2022/09/01 04:24:45;;;;;;;6.20;4.37;;;16.30;99.90;;;;;;4950848;28;20529;-72
2022/09/01 04:27:12;;;;;;;5.33;4.30;;;16.30;99.90;;;;;;4952036;28;20183;-73
2022/09/01 04:29:38;;;;;;;7.63;3.93;;;16.30;99.90;;;;;;4951821;28;20636;-72
2022/09/01 04:32:08;;;;;;;9.70;3.93;;;16.20;99.90;;;;;;4951345;28;20180;-72
2022/09/01 04:34:36;;;;;;;8.00;4.70;;;16.20;1.00;;;;;;4950842;28;20242;-72
2022/09/01 04:37:08;;;;;;;8.07;5.00;;;16.20;99.90;;;;;;4951906;28;20231;-72
2022/09/01 04:39:35;;;;;;;8.83;5.03;;;16.10;99.90;;;;;;4951831;28;20252;-72
2022/09/01 04:42:05;;;;;;;12.47;4.67;;;16.10;99.90;;;;;;4951388;28;20184;-72
2022/09/01 04:44:30;;;;;;;11.03;4.80;;;16.10;99.90;;;;;;4951618;28;20227;-72
2022/09/01 04:46:56;;;;;;;10.97;5.03;;;16.10;99.90;;;;;;4951530;28;20192;-72
2022/09/01 04:49:25;;;;;;;14.23;5.17;;;16.10;99.90;;;;;;4951906;29;20648;-71
2022/09/01 04:51:51;;;;;;;12.10;4.97;;;16.00;1.00;;;;;;4951146;28;20177;-71
2022/09/01 04:54:18;;;;;;;8.90;4.67;;;16.00;1.00;;;;;;4949651;28;20263;-72
2022/09/01 04:56:46;;;;;;;9.77;5.07;;;16.00;1.00;;;;;;4951263;28;20201;-72
2022/09/01 04:59:13;;;;;;;14.03;5.00;;;16.00;1.00;;;;;;4950488;28;20173;-72
2022/09/01 05:01:43;;;;;;;12.40;5.20;;;16.00;99.90;;;;;;4951506;28;20219;-72
2022/09/01 05:04:21;;;;;;;15.17;5.00;;;16.00;1.00;;;;;;4952237;28;20214;-72
2022/09/01 05:06:55;;;;;;;9.13;4.87;;;16.00;1.00;;;;;;4954789;28;20607;-73
2022/09/01 05:09:23;;;;;;;9.53;4.80;;;15.90;1.00;;;;;;4954521;28;20601;-71
2022/09/01 05:11:49;;;;;;;14.27;5.47;;;15.90;1.00;;;;;;4954291;28;20623;-72
2022/09/01 05:14:17;;;;;;;8.87;5.10;;;16.00;1.00;;;;;;4953314;28;20228;-72
2022/09/01 05:16:44;;;;;;;8.67;5.10;;;16.10;99.90;;;;;;4953998;28;20215;-73
2022/09/01 05:19:16;;;;;;;8.23;4.60;;;16.20;99.90;;;;;;4954196;28;20172;-73
2022/09/01 05:21:44;;;;;;;11.03;5.00;;;16.20;99.90;;;;;;4952938;29;20189;-73
2022/09/01 05:24:16;;;;;;;7.70;4.67;;;16.40;99.90;;;;;;4953916;28;20184;-72
2022/09/01 05:26:43;;;;;;;11.13;5.17;;;16.70;1.00;;;;;;4954070;28;20208;-73
2022/09/01 05:29:12;;;;;;;11.43;4.93;;;17.00;69.10;;;;;;4954066;28;20173;-73
2022/09/01 05:31:39;;;;;;;11.30;4.60;;;17.40;99.90;;;;;;4953439;28;20196;-73
2022/09/01 05:34:08;;;;;;;8.90;4.60;;;17.70;99.90;;;;;;4953781;28;20176;-73
2022/09/01 05:36:36;;;;;;;8.50;5.17;;;18.00;1.00;;;;;;4954023;28;20739;-73
2022/09/01 05:39:03;;;;;;;7.53;4.50;;;18.40;1.00;;;;;;4952654;28;20586;-72
2022/09/01 05:41:29;;;;;;;12.40;5.28;;;18.60;1.00;;;;;;4953126;28;20181;-72
2022/09/01 05:43:55;;;;;;;11.85;4.93;;;18.90;99.90;;;;;;4953628;28;20260;-72
2022/09/01 05:46:25;;;;;;;8.63;4.63;;;19.30;91.90;;;;;;4953538;28;20184;-74
2022/09/01 05:48:53;;;;;;;12.65;5.72;;;19.40;1.00;;;;;;4953433;28;20173;-72
2022/09/01 05:51:22;;;;;;;9.10;5.78;;;19.00;99.90;;;;;;4952592;28;20246;-73
2022/09/01 05:53:51;;;;;;;10.65;5.10;;;18.70;99.90;;;;;;4951916;28;20284;-74
2022/09/01 05:56:18;;;;;;;11.43;4.68;;;19.00;99.90;;;;;;4953158;28;20204;-74
2022/09/01 05:58:47;;;;;;;9.25;5.50;;;19.50;1.00;;;;;;4952528;28;20243;-75
2022/09/01 06:01:20;;;;;;;9.88;5.18;;;20.20;99.90;;;;;;4952669;28;20169;-74
2022/09/01 06:03:53;;;;;;;13.13;5.18;;;20.60;1.00;;;;;;4952560;28;20173;-75
2022/09/01 06:06:23;;;;;;;16.15;5.80;;;21.20;1.00;;;;;;4952934;28;20165;-74
2022/09/01 06:08:51;;;;;;;13.60;5.30;;;22.10;1.00;;;;;;4953385;28;20190;-74
2022/09/01 06:11:18;;;;;;;15.73;5.93;;;22.40;1.00;;;;;;4952241;28;20260;-75
2022/09/01 06:13:46;;;;;;;14.43;5.93;;;22.40;1.00;;;;;;4952689;28;20228;-75
2022/09/01 06:16:16;;;;;;;20.83;6.50;;;22.40;99.90;;;;;;4950753;28;20240;-75
2022/09/01 06:18:42;;;;;;;16.17;6.30;;;22.30;99.90;;;;;;4952639;28;20169;-76
2022/09/01 06:21:13;;;;;;;12.25;5.55;;;22.30;99.90;;;;;;4953648;28;20180;-75
2022/09/01 06:23:41;;;;;;;10.10;5.85;;;22.50;99.90;;;;;;4951994;28;20173;-76
2022/09/01 06:26:15;;;;;;;16.08;6.75;;;22.80;99.90;;;;;;4952897;28;20196;-75
2022/09/01 06:28:42;;;;;;;10.77;6.45;;;23.40;99.90;;;;;;4951371;28;20176;-75
2022/09/01 06:31:08;;;;;;;9.50;6.65;;;23.90;99.90;;;;;;4952819;28;20188;-74
2022/09/01 06:33:34;;;;;;;11.07;6.13;;;23.70;99.90;;;;;;4953354;28;20176;-75
2022/09/01 06:36:02;;;;;;;7.68;6.07;;;23.20;99.90;;;;;;4952436;28;20224;-76
2022/09/01 06:38:29;;;;;;;13.85;6.18;;;23.60;99.90;;;;;;4952142;28;20203;-75
2022/09/01 06:41:03;;;;;;;9.55;6.22;;;24.30;99.90;;;;;;4951805;28;20192;-75
2022/09/01 06:43:29;;;;;;;6.05;5.45;;;24.60;99.90;;;;;;4952160;28;20268;-75
2022/09/01 06:45:55;;;;;;;6.95;5.78;;;24.80;99.90;;;;;;4952527;28;20187;-75
2022/09/01 06:48:22;;;;;;;7.10;5.95;;;24.10;99.90;;;;;;4952731;28;20251;-75
2022/09/01 06:50:48;;;;;;;6.50;5.72;;;23.90;99.90;;;;;;4952385;28;20179;-76
2022/09/01 06:53:17;;;;;;;7.32;5.45;;;24.30;99.90;;;;;;4952437;28;20226;-75
2022/09/01 06:55:47;;;;;;;6.75;5.72;;;23.90;99.90;;;;;;4950801;28;20712;-75
2022/09/01 06:58:14;;;;;;;6.50;5.60;;;24.50;99.90;;;;;;4951537;28;20188;-75
2022/09/01 07:00:42;;;;;;;10.50;5.80;;;24.50;99.90;;;;;;4957556;28;20184;-73
2022/09/01 07:03:09;;;;;;;8.00;5.90;;;25.40;99.90;;;;;;4970618;28;20263;-74
2022/09/01 07:05:44;;;;;;;11.70;5.78;;;25.90;99.90;;;;;;5008441;28;20176;-73
2022/09/01 07:08:16;;;;;;;8.48;5.65;;;26.10;99.90;;;;;;5001874;28;20543;-74
2022/09/01 07:10:48;;;;;;;13.25;6.55;;;26.80;99.90;;;;;;5046250;28;20180;-75
2022/09/01 07:13:21;;;;;;;10.45;5.82;;;27.00;99.90;;;;;;5004007;28;20638;-75
2022/09/01 07:15:48;;;;;;;12.90;6.22;;;26.30;99.90;;;;;;5047864;28;20215;-74
2022/09/01 07:18:16;;;;;;;8.07;5.90;;;26.00;99.90;;;;;;5030619;28;20240;-75
2022/09/01 07:20:43;;;;;;;9.45;5.57;;;26.70;99.90;;;;;;4977224;28;20187;-75
2022/09/01 07:23:10;;;;;;;7.05;5.47;;;26.60;99.90;;;;;;4970929;28;20179;-75
2022/09/01 07:25:42;;;;;;;6.40;5.28;;;26.50;99.90;;;;;;4968255;28;20198;-74
2022/09/01 07:28:09;;;;;;;7.78;5.05;;;25.30;99.90;;;;;;4993133;28;20262;-74
2022/09/01 07:30:47;;;;;;;5.80;5.30;;;25.20;99.90;;;;;;4974524;28;20208;-74
2022/09/01 07:33:14;;;;;;;6.75;5.70;;;24.60;99.90;;;;;;4957543;28;20168;-74
2022/09/01 07:35:41;;;;;;;8.88;6.10;;;24.90;99.90;;;;;;4979023;28;20238;-76
2022/09/01 07:38:08;;;;;;;9.35;5.47;;;26.30;99.90;;;;;;4973782;28;20671;-76
2022/09/01 07:40:37;;;;;;;7.18;5.45;;;27.60;99.90;;;;;;4985339;28;20311;-76
2022/09/01 07:43:08;;;;;;;8.65;5.18;;;27.40;99.90;;;;;;5025458;28;20588;-76
2022/09/01 07:45:37;;;;;;;8.13;5.07;;;27.00;99.90;;;;;;5019185;28;20314;-76
2022/09/01 07:48:05;;;;;;;9.23;5.22;;;27.50;99.90;;;;;;5025356;28;20182;-76
2022/09/01 07:50:34;;;;;;;9.82;5.20;;;27.00;99.90;;;;;;5051785;28;20584;-76
2022/09/01 07:53:00;;;;;;;9.15;4.90;;;27.20;99.90;;;;;;4978882;28;20593;-76
2022/09/01 07:55:27;;;;;;;7.40;4.90;;;27.10;99.90;;;;;;5011273;28;20183;-77
2022/09/01 07:57:53;;;;;;;8.68;5.38;;;28.00;99.90;;;;;;5029853;28;20180;-77
2022/09/01 08:00:20;;;;;;;7.03;5.00;;;28.50;99.90;;;;;;5017335;28;20631;-78
2022/09/01 08:02:46;;;;;;;7.60;4.50;;;28.70;99.90;;;;;;5057813;28;20259;-76
2022/09/01 08:05:16;;;;;;;5.63;4.75;;;28.80;99.90;;;;;;5006881;28;20176;-75
2022/09/01 08:07:43;;;;;;;6.43;4.43;;;29.10;99.90;;;;;;5037502;28;20224;-76
2022/09/01 08:10:08;;;;;;;6.50;4.47;;;30.10;99.90;;;;;;4997596;28;20581;-76
2022/09/01 08:12:34;;;;;;;5.35;4.22;;;29.30;99.90;;;;;;4970491;28;20171;-77
2022/09/01 08:15:06;;;;;;;4.93;4.30;;;28.90;99.90;;;;;;4971790;28;20279;-77
2022/09/01 08:17:32;;;;;;;6.63;4.28;;;29.00;99.90;;;;;;4975875;28;20207;-78
2022/09/01 08:19:57;;;;;;;9.43;4.78;;;29.30;99.90;;;;;;4979064;28;20186;-77
2022/09/01 08:22:24;;;;;;;9.32;4.30;;;28.90;99.90;;;;;;4968180;28;20245;-78
2022/09/01 08:24:53;;;;;;;6.20;4.00;;;28.50;99.90;;;;;;4968116;28;20186;-77
2022/09/01 08:27:19;;;;;;;5.90;3.92;;;28.30;99.90;;;;;;4970542;28;20176;-78
2022/09/01 08:29:45;;;;;;;7.15;4.03;;;28.90;99.90;;;;;;4970672;28;20569;-79
2022/09/01 08:32:10;;;;;;;8.63;3.80;;;29.00;99.90;;;;;;4968640;28;20274;-78
2022/09/01 08:34:36;;;;;;;4.15;3.75;;;27.90;99.90;;;;;;4970322;28;20635;-77
2022/09/01 08:37:04;;;;;;;9.70;3.97;;;27.20;99.90;;;;;;4969145;28;20686;-78
2022/09/01 08:39:29;;;;;;;6.22;4.35;;;28.00;99.90;;;;;;4969125;28;20164;-78
2022/09/01 08:42:17;;;;;;;6.97;3.80;;;29.00;99.90;;;;;;4968791;28;20184;-77
2022/09/01 08:44:53;;;;;;;6.78;3.30;;;28.90;99.90;;;;;;4969518;28;20204;-77
2022/09/01 08:47:19;;;;;;;4.70;3.58;;;29.20;99.90;;;;;;4970269;28;20183;-78
2022/09/01 08:49:46;;;;;;;3.95;3.05;;;29.40;99.90;;;;;;4969876;28;20223;-78
2022/09/01 08:52:35;;;;;;;6.90;2.88;;;29.10;99.90;;;;;;4968608;28;20180;-77
2022/09/01 08:55:26;;;;;;;5.60;3.17;;;29.00;99.90;;;;;;4969394;28;20681;-75
2022/09/01 08:57:54;;;;;;;4.15;3.22;;;27.60;99.90;;;;;;4970929;28;20192;-77
2022/09/01 09:00:35;;;;;;;2.80;2.60;;;28.80;99.90;;;;;;4970161;28;20175;-77
2022/09/01 09:03:30;;;;;;;2.67;2.50;;;29.70;99.90;;;;;;4968840;28;20607;-76
2022/09/01 09:06:20;;;;;;;2.92;2.50;;;28.50;99.90;;;;;;4969040;28;20169;-74
2022/09/01 09:09:04;;;;;;;5.78;3.13;;;27.00;99.90;;;;;;4969073;28;20180;-75
2022/09/01 09:11:49;;;;;;;3.75;2.78;;;28.20;99.90;;;;;;4969505;28;20200;-74
2022/09/01 09:14:42;;;;;;;2.90;2.33;;;27.10;99.90;;;;;;4950927;28;20254;-77
2022/09/01 09:17:09;;;;;;;3.10;2.45;;;28.10;99.90;;;;;;4969486;28;20214;-76
2022/09/01 09:19:39;;;;;;;3.08;2.40;;;28.70;99.90;;;;;;4969980;28;20165;-76
2022/09/01 09:22:11;;;;;;;3.22;2.65;;;28.80;99.90;;;;;;4969873;28;20530;-76
2022/09/01 09:24:51;;;;;;;3.90;3.47;;;30.10;99.90;;;;;;4970014;28;20202;-76
2022/09/01 09:27:26;;;;;;;3.70;2.97;;;29.60;99.90;;;;;;4970433;28;20290;-78
2022/09/01 09:29:59;;;;;;;7.13;3.97;;;29.80;99.90;;;;;;4969286;28;20378;-76
2022/09/01 09:33:03;;;;;;;2.83;2.63;;;30.30;99.90;;;;;;4969625;28;20222;-77
2022/09/01 09:35:41;;;;;;;5.82;2.70;;;29.70;99.90;;;;;;4950649;28;20222;-77
2022/09/01 09:38:17;;;;;;;4.10;2.60;;;29.00;99.90;;;;;;4950838;28;20234;-77
2022/09/01 09:40:57;;;;;;;2.70;2.47;;;29.70;99.90;;;;;;4951317;28;20243;-76
2022/09/01 09:43:24;;;;;;;3.47;2.35;;;29.30;99.90;;;;;;4950486;28;20215;-75
2022/09/01 09:45:57;;;;;;;2.70;2.20;;;29.20;99.90;;;;;;4949348;28;20264;-74
2022/09/01 09:48:30;;;;;;;3.50;2.60;;;28.70;99.90;;;;;;4950759;29;20173;-75
2022/09/01 09:51:13;;;;;;;2.70;2.50;;;29.10;99.90;;;;;;4966466;28;20691;-75
2022/09/01 09:53:39;;;;;;;3.72;2.40;;;28.40;99.90;;;;;;4972206;28;20233;-76
2022/09/01 09:56:14;;;;;;;2.75;1.83;;;28.40;99.90;;;;;;4972280;28;20302;-75
2022/09/01 09:58:41;;;;;;;2.70;2.20;;;28.10;99.90;;;;;;4972277;28;20643;-75
2022/09/01 10:01:15;;;;;;;5.38;1.98;;;28.30;99.90;;;;;;4973113;28;20184;-76
2022/09/01 10:03:47;;;;;;;3.10;2.20;;;28.20;99.90;;;;;;4978491;28;20183;-75
2022/09/01 10:06:32;;;;;;;2.83;2.15;;;27.90;99.90;;;;;;4974942;28;20183;-76
2022/09/01 10:09:01;;;;;;;3.33;2.40;;;28.10;99.90;;;;;;4970552;28;20958;-76
2022/09/01 10:11:36;;;;;;;2.15;2.05;;;28.30;98.20;;;;;;5010896;28;20207;-76
2022/09/01 10:14:09;;;;;;;4.13;2.70;;;28.80;97.30;;;;;;5035231;28;20254;-76
2022/09/01 10:16:38;;;;;;;3.35;2.25;;;28.70;94.30;;;;;;5049212;28;20208;-77
2022/09/01 10:19:06;;;;;;;3.42;2.10;;;28.80;91.70;;;;;;5005652;28;20199;-77
2022/09/01 10:21:41;;;;;;;2.22;1.95;;;29.20;83.40;;;;;;5025510;28;20241;-76
2022/09/01 10:24:31;;;;;;;2.05;1.85;;;28.80;78.60;;;;;;5033310;28;20209;-75
2022/09/01 10:27:01;;;;;;;2.53;2.33;;;27.90;82.30;;;;;;4995246;28;20191;-74
2022/09/01 10:29:34;;;;;;;2.83;2.30;;;27.50;83.50;;;;;;5055104;28;20179;-75
2022/09/01 10:32:01;;;;;;;3.25;1.90;;;26.90;88.10;;;;;;5027854;28;20183;-77
2022/09/01 10:34:32;;;;;;;2.60;2.40;;;26.80;89.80;;;;;;5020107;28;20175;-78
2022/09/01 10:36:59;;;;;;;2.17;1.70;;;27.30;87.50;;;;;;4979529;28;20260;-78
2022/09/01 10:39:24;;;;;;;3.10;2.67;;;27.10;84.10;;;;;;4977491;28;20221;-78
2022/09/01 10:41:56;;;;;;;2.55;2.35;;;27.30;80.70;;;;;;5023758;28;20670;-77
2022/09/01 10:44:37;;;;;;;3.33;3.08;;;27.50;83.60;;;;;;4975148;28;20380;-75
2022/09/01 10:47:32;;;;;;;5.75;5.03;;;26.90;85.10;;;;;;4974231;28;20188;-76
2022/09/01 10:50:31;;;;;;;4.20;3.90;;;26.70;84.50;;;;;;5028022;28;20188;-77
2022/09/01 10:53:02;;;;;;;2.30;2.15;;;26.10;91.00;;;;;;5003939;28;20204;-76
2022/09/01 10:55:31;;;;;;;3.50;2.03;;;26.70;88.80;;;;;;5053595;28;20175;-76
2022/09/01 10:58:44;;;;;;;2.40;2.28;;;27.30;82.60;;;;;;4988595;28;20258;-77
2022/09/01 11:01:09;;;;;;;2.10;1.90;;;27.50;85.10;;;;;;5058334;28;20191;-76
2022/09/01 11:03:55;;;;;;;3.80;2.92;;;27.30;71.70;;;;;;5013848;28;20165;-77
2022/09/01 11:06:48;;;;;;;1.83;1.73;;;27.30;71.50;;;;;;5024164;28;20650;-77
2022/09/01 11:09:25;;;;;;;3.38;3.08;;;26.60;76.50;;;;;;5057355;28;20187;-77
2022/09/01 11:12:04;;;;;;;2.47;2.28;;;26.50;82.00;;;;;;5023144;28;20199;-77
2022/09/01 11:14:34;;;;;;;4.97;1.95;;;26.50;79.40;;;;;;5017713;28;20238;-77
2022/09/01 11:17:25;;;;;;;3.90;1.70;;;27.10;77.20;;;;;;5058468;28;20262;-76
2022/09/01 11:20:09;;;;;;;2.28;2.10;;;26.90;81.70;;;;;;5012862;28;20184;-76
2022/09/01 11:22:45;;;;;;;2.88;2.50;;;27.10;79.90;;;;;;5014762;28;20642;-76
2022/09/01 11:25:32;;;;;;;1.98;1.88;;;27.70;75.60;;;;;;5059112;28;20171;-77
2022/09/01 11:28:04;;;;;;;2.78;2.00;;;27.90;64.80;;;;;;5026841;28;20164;-76
2022/09/01 11:30:30;;;;;;;2.22;2.13;;;27.30;65.60;;;;;;5017241;28;20223;-76
2022/09/01 11:33:11;;;;;;;1.92;1.77;;;27.00;67.80;;;;;;5058549;28;20164;-76
2022/09/01 11:35:37;;;;;;;1.95;1.85;;;27.50;66.60;;;;;;5015236;28;20200;-76
2022/09/01 11:38:07;;;;;;;2.53;2.33;;;27.40;60.30;;;;;;5032945;28;20183;-75
2022/09/01 11:40:34;;;;;;;3.03;2.20;;;26.70;63.70;;;;;;5078848;28;20263;-77
2022/09/01 11:43:13;;;;;;;4.18;1.98;;;26.50;72.60;;;;;;5003055;28;20215;-75
2022/09/01 11:45:54;;;;;;;2.15;1.95;;;26.80;68.30;;;;;;5079140;28;20596;-74
2022/09/01 11:48:20;;;;;;;4.20;2.67;;;26.80;60.50;;;;;;5039556;28;20172;-74
2022/09/01 11:50:59;;;;;;;3.78;2.13;;;26.80;68.40;;;;;;5008250;28;20228;-75
2022/09/01 11:53:26;;;;;;;3.95;2.00;;;26.90;63.90;;;;;;4960237;28;20657;-76
2022/09/01 11:55:55;;;;;;;2.75;2.20;;;26.90;91.60;;;;;;5023438;28;20192;-77
2022/09/01 11:58:30;;;;;;;1.83;1.73;;;27.20;64.90;;;;;;5018073;28;20238;-76
2022/09/01 12:01:10;;;;;;;7.57;2.97;;;26.70;64.70;;;;;;4977871;28;20175;-76
2022/09/01 12:03:35;;;;;;;3.22;3.00;;;26.40;71.70;;;;;;5013665;28;20176;-76
2022/09/01 12:06:04;;;;;;;2.63;2.42;;;26.60;70.20;;;;;;5033736;28;20171;-75
2022/09/01 12:08:41;;;;;;;2.47;1.92;;;26.10;74.30;;;;;;5044938;28;20203;-76
2022/09/01 12:11:20;;;;;;;3.08;2.17;;;26.10;82.90;;;;;;5003644;28;20190;-76
2022/09/01 12:14:07;;;;;;;2.20;2.10;;;26.10;77.50;;;;;;5041015;28;21555;-75
2022/09/01 12:16:35;;;;;;;2.63;2.35;;;26.20;78.50;;;;;;5045866;28;20659;-77
2022/09/01 12:19:03;;;;;;;3.28;2.17;;;26.40;75.80;;;;;;5003219;28;20171;-76
2022/09/01 12:21:41;;;;;;;3.65;2.22;;;26.50;77.10;;;;;;5049816;28;20167;-77
2022/09/01 12:24:17;;;;;;;2.28;2.08;;;26.60;68.70;;;;;;5031071;28;20221;-76
2022/09/01 12:26:44;;;;;;;2.72;2.53;;;26.50;75.40;;;;;;5009515;28;20189;-77
2022/09/01 12:29:15;;;;;;;2.15;2.05;;;26.50;77.30;;;;;;5056845;28;20164;-78
2022/09/01 12:31:43;;;;;;;4.82;2.40;;;26.60;76.50;;;;;;5016297;28;20173;-78
2022/09/01 12:34:27;;;;;;;2.65;2.00;;;26.80;74.80;;;;;;5028200;28;20198;-76
2022/09/01 12:37:04;;;;;;;3.25;2.17;;;26.60;76.00;;;;;;5057250;28;20216;-76
2022/09/01 12:39:38;;;;;;;2.90;1.80;;;26.30;75.80;;;;;;5050936;28;20221;-76
2022/09/01 12:42:23;;;;;;;2.75;2.10;;;25.90;80.70;;;;;;5028796;28;20226;-76
2022/09/01 12:44:54;;;;;;;6.95;2.40;;;25.90;82.10;;;;;;5006499;28;20694;-77
2022/09/01 12:47:32;;;;;;;4.82;2.15;;;26.10;83.80;;;;;;4981224;28;20175;-76
2022/09/01 12:49:59;;;;;;;2.20;2.00;;;26.30;78.20;;;;;;5008810;28;20269;-76
2022/09/01 12:52:26;;;;;;;2.45;2.00;;;26.40;79.70;;;;;;5041522;28;20160;-75
2022/09/01 12:54:58;;;;;;;2.90;2.00;;;26.50;73.40;;;;;;5003855;28;20206;-75
2022/09/01 12:57:37;;;;;;;5.53;2.40;;;26.40;75.10;;;;;;4957504;28;20236;-76
2022/09/01 13:00:10;;;;;;;2.53;1.80;;;26.60;77.60;;;;;;5029210;28;20171;-74
2022/09/01 13:02:39;;;;;;;1.95;1.85;;;26.20;75.60;;;;;;5012319;28;20179;-76
2022/09/01 13:05:23;;;;;;;3.28;2.00;;;26.00;76.60;;;;;;5089543;28;20247;-75
2022/09/01 13:07:53;;;;;;;6.55;2.88;;;25.80;84.10;;;;;;5052446;28;20187;-76
2022/09/01 13:10:19;;;;;;;6.75;2.90;;;26.00;81.50;;;;;;5022784;28;20631;-70
2022/09/01 13:12:45;;;;;;;5.93;2.30;;;25.90;77.00;;;;;;5050837;28;20177;-77